Calmar, Canada
Current Conditions -  °F | °C
As of 12:00 PM on Thursday 30 Oct 2014 (Local Time) from CYEG Reporting Station
Haze Haze  
Wind Chill: 19°   Ceiling: 500
Heat Index: 32°   Visibility: 6mi
Dew Point: 28°   Wind: 23mph
Humidity: 87%   Direction: 140°SE
Pressure: 30.18"   Gusts: 30mph
Location:  53.25°N, 113.78°W
Report Text: CYEG 301800Z 14020G26KT 6SM BR OVC005 M00/M02 A3018 RMK ST8 SLP252
Loading
Personal Weather Stations






























Interactive Weather Map
Tropical Storm Tracking
New forecast layout! Learn more

10-Day Weather Forecast

Advertisements
Track Severe Weather on mobile